createdAt,value
2022-07-27T00:07:57.169Z,76.78
2022-07-27T00:18:04.567Z,76.84
2022-07-27T00:28:11.622Z,77.03
2022-07-27T00:38:18.707Z,76.99
2022-07-27T00:48:27.170Z,77.28
2022-07-27T00:58:33.486Z,77.34
2022-07-27T01:08:42.648Z,77.58
2022-07-27T01:18:48.787Z,77.45
2022-07-27T01:29:00.376Z,77.60
2022-07-27T01:39:08.316Z,77.76
2022-07-27T01:49:16.476Z,77.83
2022-07-27T01:59:24.015Z,77.61
2022-07-27T02:09:31.247Z,77.92
2022-07-27T02:19:38.542Z,78.08
2022-07-27T02:29:45.885Z,78.25
2022-07-27T02:39:53.864Z,78.30
2022-07-27T02:50:00.044Z,78.46
2022-07-27T03:00:09.774Z,78.51
2022-07-27T03:10:17.171Z,78.75
2022-07-27T03:20:24.551Z,78.57
2022-07-27T03:30:32.237Z,78.31
2022-07-27T03:40:39.894Z,78.44
2022-07-27T03:50:47.228Z,78.64
2022-07-27T04:00:54.507Z,78.61
2022-07-27T04:11:01.866Z,78.63
2022-07-27T04:21:09.089Z,78.78
2022-07-27T04:31:17.383Z,78.89
2022-07-27T04:41:30.169Z,78.78
2022-07-27T04:51:37.797Z,78.81
2022-07-27T05:01:45.194Z,78.69
2022-07-27T05:11:52.502Z,77.40
2022-07-27T05:22:00.193Z,75.12
2022-07-27T05:32:08.154Z,75.14
2022-07-27T05:42:15.905Z,74.01
2022-07-27T05:52:23.046Z,72.05
2022-07-27T06:02:31.830Z,72.18
2022-07-27T06:12:39.807Z,72.41
2022-07-27T06:22:48.400Z,72.27
2022-07-27T06:32:55.550Z,71.45
2022-07-27T06:43:04.018Z,69.21
2022-07-27T06:53:12.109Z,69.45
2022-07-27T07:03:19.265Z,67.33
2022-07-27T07:13:26.520Z,66.33
2022-07-27T07:23:33.750Z,66.70
2022-07-27T07:33:40.919Z,66.05
2022-07-27T07:43:48.340Z,64.51
2022-07-27T07:53:55.496Z,63.92
2022-07-27T08:04:02.937Z,63.22
2022-07-27T08:14:11.435Z,62.27
2022-07-27T08:24:18.606Z,62.42
2022-07-27T08:34:25.734Z,62.04
2022-07-27T08:44:33.204Z,62.13
2022-07-27T08:54:43.295Z,62.46
2022-07-27T09:04:50.981Z,62.28
2022-07-27T09:15:05.781Z,61.35
2022-07-27T09:25:14.179Z,60.10
2022-07-27T09:35:24.110Z,59.19
2022-07-27T09:45:32.764Z,58.94
2022-07-27T09:55:41.385Z,58.12
2022-07-27T10:05:47.638Z,57.31
2022-07-27T10:15:54.241Z,56.71
2022-07-27T10:26:28.403Z,55.66
2022-07-27T10:36:52.797Z,55.09
2022-07-27T10:47:01.926Z,54.97
2022-07-27T10:57:09.446Z,54.71
2022-07-27T11:07:29.699Z,54.40
2022-07-27T11:17:59.387Z,53.23
2022-07-27T11:28:07.541Z,52.33
2022-07-27T11:38:14.892Z,52.57
2022-07-27T11:48:22.262Z,51.73
2022-07-27T11:58:29.513Z,51.42
2022-07-27T12:08:37.222Z,51.05
2022-07-27T12:18:47.808Z,51.16
2022-07-27T12:29:06.575Z,50.06
2022-07-27T12:39:26.874Z,48.72
2022-07-27T12:49:34.777Z,48.74
2022-07-27T12:59:42.047Z,48.69
2022-07-27T13:10:02.209Z,48.53
2022-07-27T13:20:12.663Z,49.11
2022-07-27T13:30:21.276Z,51.64
2022-07-27T13:40:28.455Z,54.18
2022-07-27T13:50:35.657Z,55.30
2022-07-27T14:00:43.676Z,55.83
2022-07-27T14:20:57.303Z,57.21
2022-07-27T14:31:06.651Z,57.21
2022-07-27T14:41:14.912Z,57.15
2022-07-27T14:51:22.224Z,57.22
2022-07-27T15:01:29.708Z,57.31
2022-07-27T15:11:37.971Z,57.50
2022-07-27T15:21:47.475Z,57.71
2022-07-27T15:31:54.854Z,58.42
2022-07-27T15:42:02.290Z,59.66
2022-07-27T15:52:08.785Z,60.75
2022-07-27T16:02:16.173Z,61.08
2022-07-27T16:12:33.820Z,60.68
2022-07-27T16:22:45.168Z,60.08
2022-07-27T16:32:52.438Z,58.53
2022-07-27T16:42:58.714Z,58.06
2022-07-27T16:53:06.000Z,58.00
2022-07-27T17:03:13.500Z,57.88
2022-07-27T17:13:21.105Z,57.95
2022-07-27T17:23:33.690Z,58.03
2022-07-27T17:33:40.388Z,58.34
2022-07-27T17:43:47.693Z,58.28
2022-07-27T17:53:54.870Z,57.85
2022-07-27T18:04:02.382Z,57.49
2022-07-27T18:14:09.702Z,57.63
2022-07-27T18:24:17.969Z,57.06
2022-07-27T18:34:24.735Z,56.80
2022-07-27T18:44:35.288Z,56.69
2022-07-27T18:54:44.769Z,56.91
2022-07-27T19:04:50.913Z,57.15
2022-07-27T19:14:58.173Z,57.90
2022-07-27T19:25:08.374Z,58.16
2022-07-27T19:35:15.928Z,58.41
2022-07-27T19:45:21.628Z,58.50
2022-07-27T20:05:34.190Z,58.84
2022-07-27T20:15:40.536Z,59.28
2022-07-27T20:25:46.616Z,59.76
2022-07-27T20:35:53.767Z,60.64
2022-07-27T20:46:00.953Z,61.04
2022-07-27T20:56:08.153Z,61.62
2022-07-27T21:06:14.447Z,61.98
2022-07-27T21:16:21.898Z,62.68
2022-07-27T21:26:29.100Z,62.81
2022-07-27T21:36:38.291Z,63.42
2022-07-27T21:46:45.442Z,63.87
2022-07-27T21:56:51.872Z,63.93
2022-07-27T22:06:59.111Z,63.96
2022-07-27T22:17:06.247Z,64.20
2022-07-27T22:27:12.480Z,64.18
2022-07-27T22:37:19.720Z,64.15
2022-07-27T22:47:27.290Z,64.18
2022-07-27T22:57:34.631Z,64.42
2022-07-27T23:07:42.150Z,64.59
2022-07-27T23:17:49.840Z,64.87
2022-07-27T23:27:57.548Z,65.34
2022-07-27T23:38:04.629Z,65.65
2022-07-27T23:48:11.902Z,65.87
2022-07-27T23:58:18.977Z,66.22
